createdAt,value
2022-11-27T19:17:48.474Z,4.33301
2022-11-27T19:22:49.632Z,86.92343
2022-11-27T19:27:50.746Z,103.17313
2022-11-27T19:32:51.877Z,109.5914
2022-11-27T19:37:53.250Z,112.76712
2022-11-27T19:42:59.440Z,115.58774
2022-11-27T19:48:02.013Z,117.52113
2022-11-27T19:53:02.987Z,118.50425
2022-11-27T19:58:03.950Z,120.5043
2022-11-27T20:03:04.912Z,121.52161
2022-11-27T20:08:05.906Z,121.52161
2022-11-27T20:13:06.997Z,122.55072
2022-11-27T20:18:07.937Z,123.06977
2022-11-27T20:23:08.848Z,125.17647
2022-11-27T20:28:09.771Z,126.78932
2022-11-27T20:33:10.653Z,128.98498
2022-11-27T20:38:11.585Z,130.10272
2022-11-27T20:43:12.489Z,129.54217
2022-11-27T20:48:13.675Z,129.54217
2022-11-27T20:53:14.670Z,128.98498
2022-11-27T20:58:15.563Z,130.66667
2022-11-27T21:03:16.529Z,132.3792
2022-11-27T21:08:17.548Z,135.30435
2022-11-27T21:13:18.516Z,133.53846
2022-11-27T21:18:19.389Z,133.53846
2022-11-27T21:23:20.315Z,134.71207
2022-11-27T21:28:21.285Z,135.30435
2022-11-27T21:33:22.212Z,136.5
2022-11-27T21:38:23.078Z,136.5
2022-11-27T21:43:23.957Z,135.90031
2022-11-27T21:48:25.122Z,135.90031
2022-11-27T21:53:26.121Z,135.90031
2022-11-27T21:58:27.106Z,135.90031
2022-11-27T22:03:28.011Z,136.5
2022-11-27T22:08:28.893Z,136.5
2022-11-27T22:13:29.838Z,137.71069
2022-11-27T22:18:30.749Z,138.32177
2022-11-27T22:23:31.663Z,138.93671
2022-11-27T22:28:32.533Z,138.32177
2022-11-27T22:33:33.405Z,139.55556
2022-11-27T22:38:34.347Z,140.80511
2022-11-27T22:43:35.321Z,140.17834
2022-11-27T22:48:36.277Z,140.80511
2022-11-27T22:53:37.757Z,140.80511
2022-11-27T22:58:41.605Z,140.80511
2022-11-27T23:03:43.139Z,140.17834
2022-11-27T23:08:44.069Z,140.17834
2022-11-27T23:13:49.436Z,139.55556
2022-11-27T23:18:51.111Z,138.93671
2022-11-27T23:23:52.334Z,140.17834
2022-11-27T23:28:53.243Z,138.93671
2022-11-27T23:33:54.249Z,140.17834
2022-11-27T23:38:55.218Z,140.17834
2022-11-27T23:43:56.174Z,139.55556
2022-11-27T23:48:57.093Z,141.4359
2022-11-27T23:53:58.026Z,142.07074
2022-11-27T23:58:58.906Z,142.07074
